Sukkur Airport
OPSK : now visible

Airfield :











YOU CAN JOIN US ON...

 
LOGIN :

Register | Disclaimer

   EN    FR    IT 

 









Legend :    VFR   Marginal VFR   IFR   Intensive IFR   Very Intensive IFR
Visi :
Ceiling :
>= 8 km
>= 3000ft
5 to 8 km
1000 to 3000 ft
1500m to 5 km
500 to 1000 ft
800 to 1500m
200 to 500 ft
< 800m
< 200 ft
Symbols :   Thunderstorms  Fog  Heavy snow  Heavy precipitations  Wind > 20 kt






- Airport Elevation : 196 ft
- IATA code : SKZ


OPSK - Sukkur

CURRENT METAR :
  • 251100Z 00000KT 4000 HZ NSC 25/11 Q1012 NOSIG

EXPIRED METARs :
  • 251000Z 00000KT 4000 HZ NSC 26/10 Q1013 NOSIG
  • 250900Z 00000KT 3000 HZ NSC 24/10 Q1013 NOSIG

TAF TAF OPSK
Valid from the 25 at 06:00 until the 26 at 06:00 UTC


250400Z 2506/2606 04010KT 4000 HZ NSC
FM251600 18005KT 2500 FU NSC
TEMPO 2600/2604 VRB03KT 1000 BR NSC



MET'MAP, your aeronautical weather chart ! - Copyright ORBIFLY December 2007 - Disclaimer

ORBIFLY MET'MAP TEAM :

Programming & Development : Alexandra Zaïnal
Concept & original design : Baudouin d'Aumeries
Assistance for programming : Marc-Olivier Méhu
Technical & hardware support : Manuel Goepfert

Contact : metmap@orbifly.com




SOURCES & CREDITS :

   NOAA       Earth
Advisory